Minerva Virgo — SXXT — position and weather

sailwx.info

Track history (hours):
 
Tides and Currents Weather Stations Pressure Air Temp Water Temp Dewpoint Dewpoint Depression Visibility Wind Speed Wind Dir Waves Ship Positions

Minerva Virgo

Last reported at 2015-May-28 19:33 UTC. Time now 2015-May-28 19:54 UTC.
Position N 36°16' W 012°50'.

Length 182 m; draft 13 m.

Type: Ship. MMSI: 240730000.

Date/timePositionNaut miles runAvg speedWind from/ knotsBaromVisibWave heightAir tempDewpointWater temp
2015-May-28 19:33N 36°16' W 012°50'1311.9
2015-May-28 18:30N 36°27' W 012°46'1412.3
2015-May-28 17:25N 36°40' W 012°41'1012.3
2015-May-28 16:33N 36°50' W 012°37'1312.6
2015-May-28 15:33N 37°02' W 012°32'1212.4
2015-May-28 14:33N 37°14' W 012°28'1212.4
2015-May-28 13:33N 37°26' W 012°23'1212.5
2015-May-28 12:33N 37°38' W 012°18'1312.6
2015-May-28 11:33N 37°50' W 012°13'1312.6
2015-May-28 10:30N 38°03' W 012°08'1212.7
2015-May-28 09:31N 38°14' W 012°03'1212.7
2015-May-28 08:32N 38°26' W 011°58'1212.5
2015-May-28 07:33N 38°38' W 011°54'1412.2
2015-May-28 06:22N 38°52' W 011°48'1012.0
2015-May-28 05:33N 39°01' W 011°44'1612.3
2015-May-28 04:15N 39°16' W 011°38'1012.4
2015-May-28 03:27N 39°26' W 011°34'1512.4
2015-May-28 02:13N 39°40' W 011°28'912.7
2015-May-28 01:33N 39°48' W 011°25'1212.6
2015-May-28 00:33N 40°00' W 011°20'1312.5
2015-May-27 23:32N 40°12' W 011°15'  
2015-May-25 16:05N 49°59' W 002°52'3112.2
2015-May-25 13:32N 50°08' W 002°06'1510.6
2015-May-25 12:10N 50°12' W 001°44'610.5
2015-May-25 11:33N 50°14' W 001°34'1110.2
2015-May-25 10:29N 50°17' W 001°18'5912.1
2015-May-25 05:33N 50°33' E 000°12'1111.4
2015-May-25 04:33N 50°36' E 000°29'1110.5
2015-May-25 03:31N 50°41' E 000°44'1010.2
2015-May-25 02:33N 50°47' E 000°57'1010.3
2015-May-25 01:33N 50°53' E 001°10'1111.3
2015-May-25 00:33N 51°02' E 001°22'1312.7
2015-May-24 23:34N 51°09' E 001°38'1312.9
2015-May-24 22:33N 51°20' E 001°50'1212.5
2015-May-24 21:34N 51°30' E 002°02'1211.8
2015-May-24 20:33N 51°39' E 002°14'1111.2
2015-May-24 19:33N 51°47' E 002°26'4511.1
2015-May-24 15:29N 52°29' E 002°55'1213.0
2015-May-24 14:33N 52°40' E 003°03'1313.0
2015-May-24 13:33N 52°52' E 003°12'1313.1
2015-May-24 12:32N 53°04' E 003°20'1212.7
2015-May-24 11:33N 53°16' E 003°26'1511.9
2015-May-24 10:19N 53°30' E 003°33'1411.4
2015-May-24 09:07N 53°43' E 003°40'811.4
2015-May-24 08:24N 53°48' E 003°52'32610.8
2015-May-23 02:10N 57°57' E 010°08'810.5
2015-May-23 01:24N 58°01' E 010°22'910.2
2015-May-23 00:33N 58°05' E 010°36'1010.0
2015-May-22 23:33N 58°09' E 010°53'1010.3
2015-May-22 22:33N 58°14' E 011°10'8 8.4
2015-May-22 21:33N 58°20' E 011°22'3 2.6
2015-May-22 20:33N 58°21' E 011°26'0 0.0
2015-May-22 19:27N 58°21' E 011°26'0 0.0
2015-May-22 18:30N 58°21' E 011°26'0 0.0
2015-May-22 17:33N 58°21' E 011°26'0 0.0
2015-May-22 16:33N 58°21' E 011°26'0 0.0
2015-May-22 15:27N 58°21' E 011°26'0 0.0
2015-May-22 14:33N 58°21' E 011°26'0 0.0
2015-May-22 13:18N 58°21' E 011°26'0 0.0
2015-May-22 12:33N 58°21' E 011°26'0 0.0
2015-May-22 11:33N 58°21' E 011°26'0 0.0
2015-May-22 10:33N 58°21' E 011°26'0 0.0
2015-May-22 09:33N 58°21' E 011°26'0 0.0
2015-May-22 08:33N 58°21' E 011°26'0 0.0
2015-May-22 07:30N 58°21' E 011°26'0 0.0
2015-May-22 06:33N 58°21' E 011°26'0 0.0
2015-May-22 05:33N 58°21' E 011°26'0 0.0
2015-May-22 04:27N 58°21' E 011°26'0 0.0
2015-May-22 03:33N 58°21' E 011°26'0 0.0
2015-May-22 02:33N 58°21' E 011°26'0 0.0
2015-May-22 01:33N 58°21' E 011°26'0 0.0
2015-May-22 00:30N 58°21' E 011°26'0 0.0
2015-May-21 23:33N 58°21' E 011°26'0 0.0
2015-May-21 22:33N 58°21' E 011°26'0 0.0
2015-May-21 21:33N 58°21' E 011°26'0 0.0
2015-May-21 20:33N 58°21' E 011°26'0 0.0
2015-May-21 19:33N 58°21' E 011°26'0 0.0
2015-May-21 18:33N 58°21' E 011°26'0 0.0
2015-May-21 17:33N 58°21' E 011°26'0 0.0
2015-May-21 16:30N 58°21' E 011°26'0 0.0
2015-May-21 15:27N 58°21' E 011°26'0 0.0
2015-May-21 14:33N 58°21' E 011°26'0 0.0
2015-May-21 13:33N 58°21' E 011°26'0 0.0
2015-May-21 12:33N 58°21' E 011°26'0 0.0
2015-May-21 11:30N 58°21' E 011°26'0 0.0
2015-May-21 10:33N 58°21' E 011°26'0 0.0
2015-May-21 09:27N 58°21' E 011°26'0 0.0
2015-May-21 08:33N 58°21' E 011°26'0 0.0
2015-May-21 07:33N 58°21' E 011°26'0 0.0
2015-May-21 06:33N 58°21' E 011°26'0 0.0
2015-May-21 05:33N 58°21' E 011°26'0 0.0
2015-May-21 04:33N 58°21' E 011°26'0 0.0
2015-May-21 03:33N 58°21' E 011°26'0 0.0
2015-May-21 02:33N 58°21' E 011°26'0 0.0
2015-May-21 01:15N 58°21' E 011°26'0 0.0
2015-May-21 00:33N 58°21' E 011°26'1 0.8
2015-May-20 23:33N 58°21' E 011°25'5 4.9
2015-May-20 22:33N 58°18' E 011°18'7 7.1
2015-May-20 21:33N 58°12' E 011°11'0 0.1
2015-May-20 20:31N 58°12' E 011°11'0 0.0
2015-May-20 19:31N 58°12' E 011°11'0 0.0
2015-May-20 18:31N 58°12' E 011°11'0 0.0
2015-May-20 17:31N 58°12' E 011°11'0 0.0
2015-May-20 16:31N 58°12' E 011°11'0 0.0
2015-May-20 15:31N 58°12' E 011°11'0 0.0
2015-May-20 14:31N 58°12' E 011°11'0 0.0
2015-May-20 13:22N 58°12' E 011°11'0 0.0
2015-May-20 12:31N 58°12' E 011°11'0 0.0
2015-May-20 11:31N 58°12' E 011°11'0 0.0
2015-May-20 10:31N 58°12' E 011°11'0 0.0
2015-May-20 09:31N 58°12' E 011°11'0 0.0
2015-May-20 08:31N 58°12' E 011°11'0 0.0
2015-May-20 07:31N 58°12' E 011°11'0 0.0
2015-May-20 06:31N 58°12' E 011°11'0 0.0
2015-May-20 05:31N 58°12' E 011°11'0 0.0
2015-May-20 04:31N 58°12' E 011°11'0 0.0
2015-May-20 03:31N 58°12' E 011°11'0 0.0
2015-May-20 02:31N 58°12' E 011°11'0 0.0
2015-May-20 01:22N 58°12' E 011°11'0 0.0
2015-May-20 00:28N 58°12' E 011°11'0 0.0
2015-May-19 23:31N 58°12' E 011°11'0 0.0
2015-May-19 22:31N 58°12' E 011°11'0 0.0
2015-May-19 21:31N 58°12' E 011°11'0 0.0
2015-May-19 20:28N 58°12' E 011°11'0 0.0
2015-May-19 19:31N 58°12' E 011°11'0 0.0
2015-May-19 18:31N 58°12' E 011°11'0 0.0
2015-May-19 17:31N 58°12' E 011°11'0 0.0
2015-May-19 16:31N 58°12' E 011°11'0 0.0
2015-May-19 15:28N 58°12' E 011°11'0 0.0
2015-May-19 14:31N 58°12' E 011°11'0 0.0
2015-May-19 13:28N 58°12' E 011°11'0 0.0
2015-May-19 12:31N 58°12' E 011°11'0 0.0
2015-May-19 11:31N 58°12' E 011°11'0 0.0
2015-May-19 10:31N 58°12' E 011°11'0 0.0
2015-May-19 09:31N 58°12' E 011°11'0 0.0
2015-May-19 08:31N 58°12' E 011°11'0 0.0
2015-May-19 07:31N 58°12' E 011°11'0 0.0
2015-May-19 06:31N 58°12' E 011°11'0 0.0
2015-May-19 05:31N 58°12' E 011°11'0 0.1
2015-May-19 04:31N 58°12' E 011°11'0 0.0
2015-May-19 03:31N 58°12' E 011°11'0 0.0
2015-May-19 02:31N 58°12' E 011°11'0 0.0
2015-May-19 01:28N 58°12' E 011°11'0 0.0
2015-May-19 00:31N 58°12' E 011°11'0 0.0
2015-May-18 23:31N 58°12' E 011°11'0 0.0
2015-May-18 22:31N 58°12' E 011°11'0 0.0
2015-May-18 21:31N 58°12' E 011°11'0 0.0
2015-May-18 20:31N 58°12' E 011°11'  
Track history (hours):
 
Tides and Currents Weather Stations Pressure Air Temp Water Temp Dewpoint Dewpoint Depression Visibility Wind Speed Wind Dir Waves Ship Positions

Minerva Virgo

Last reported at 2015-May-28 19:33 UTC. Time now 2015-May-28 19:54 UTC.
Position N 36°16' W 012°50'.

Length 182 m; draft 13 m.

Type: Ship. MMSI: 240730000.

Date/timePositionNaut miles runAvg speedWind from/ knotsBaromVisibWave heightAir tempDewpointWater temp
2015-May-28 19:33N 36°16' W 012°50'1311.9
2015-May-28 18:30N 36°27' W 012°46'1412.3
2015-May-28 17:25N 36°40' W 012°41'1012.3
2015-May-28 16:33N 36°50' W 012°37'1312.6
2015-May-28 15:33N 37°02' W 012°32'1212.4
2015-May-28 14:33N 37°14' W 012°28'1212.4
2015-May-28 13:33N 37°26' W 012°23'1212.5
2015-May-28 12:33N 37°38' W 012°18'1312.6
2015-May-28 11:33N 37°50' W 012°13'1312.6
2015-May-28 10:30N 38°03' W 012°08'1212.7
2015-May-28 09:31N 38°14' W 012°03'1212.7
2015-May-28 08:32N 38°26' W 011°58'1212.5
2015-May-28 07:33N 38°38' W 011°54'1412.2
2015-May-28 06:22N 38°52' W 011°48'1012.0
2015-May-28 05:33N 39°01' W 011°44'1612.3
2015-May-28 04:15N 39°16' W 011°38'1012.4
2015-May-28 03:27N 39°26' W 011°34'1512.4
2015-May-28 02:13N 39°40' W 011°28'912.7
2015-May-28 01:33N 39°48' W 011°25'1212.6
2015-May-28 00:33N 40°00' W 011°20'1312.5
2015-May-27 23:32N 40°12' W 011°15'  
2015-May-25 16:05N 49°59' W 002°52'3112.2
2015-May-25 13:32N 50°08' W 002°06'1510.6
2015-May-25 12:10N 50°12' W 001°44'610.5
2015-May-25 11:33N 50°14' W 001°34'1110.2
2015-May-25 10:29N 50°17' W 001°18'5912.1
2015-May-25 05:33N 50°33' E 000°12'1111.4
2015-May-25 04:33N 50°36' E 000°29'1110.5
2015-May-25 03:31N 50°41' E 000°44'1010.2
2015-May-25 02:33N 50°47' E 000°57'1010.3
2015-May-25 01:33N 50°53' E 001°10'1111.3
2015-May-25 00:33N 51°02' E 001°22'1312.7
2015-May-24 23:34N 51°09' E 001°38'1312.9
2015-May-24 22:33N 51°20' E 001°50'1212.5
2015-May-24 21:34N 51°30' E 002°02'1211.8
2015-May-24 20:33N 51°39' E 002°14'1111.2
2015-May-24 19:33N 51°47' E 002°26'4511.1
2015-May-24 15:29N 52°29' E 002°55'1213.0
2015-May-24 14:33N 52°40' E 003°03'1313.0
2015-May-24 13:33N 52°52' E 003°12'1313.1
2015-May-24 12:32N 53°04' E 003°20'1212.7
2015-May-24 11:33N 53°16' E 003°26'1511.9
2015-May-24 10:19N 53°30' E 003°33'1411.4
2015-May-24 09:07N 53°43' E 003°40'811.4
2015-May-24 08:24N 53°48' E 003°52'32610.8
2015-May-23 02:10N 57°57' E 010°08'810.5
2015-May-23 01:24N 58°01' E 010°22'910.2
2015-May-23 00:33N 58°05' E 010°36'1010.0
2015-May-22 23:33N 58°09' E 010°53'1010.3
2015-May-22 22:33N 58°14' E 011°10'8 8.4
2015-May-22 21:33N 58°20' E 011°22'3 2.6
2015-May-22 20:33N 58°21' E 011°26'0 0.0
2015-May-22 19:27N 58°21' E 011°26'0 0.0
2015-May-22 18:30N 58°21' E 011°26'0 0.0
2015-May-22 17:33N 58°21' E 011°26'0 0.0
2015-May-22 16:33N 58°21' E 011°26'0 0.0
2015-May-22 15:27N 58°21' E 011°26'0 0.0
2015-May-22 14:33N 58°21' E 011°26'0 0.0
2015-May-22 13:18N 58°21' E 011°26'0 0.0
2015-May-22 12:33N 58°21' E 011°26'0 0.0
2015-May-22 11:33N 58°21' E 011°26'0 0.0
2015-May-22 10:33N 58°21' E 011°26'0 0.0
2015-May-22 09:33N 58°21' E 011°26'0 0.0
2015-May-22 08:33N 58°21' E 011°26'0 0.0
2015-May-22 07:30N 58°21' E 011°26'0 0.0
2015-May-22 06:33N 58°21' E 011°26'0 0.0
2015-May-22 05:33N 58°21' E 011°26'0 0.0
2015-May-22 04:27N 58°21' E 011°26'0 0.0
2015-May-22 03:33N 58°21' E 011°26'0 0.0
2015-May-22 02:33N 58°21' E 011°26'0 0.0
2015-May-22 01:33N 58°21' E 011°26'0 0.0
2015-May-22 00:30N 58°21' E 011°26'0 0.0
2015-May-21 23:33N 58°21' E 011°26'0 0.0
2015-May-21 22:33N 58°21' E 011°26'0 0.0
2015-May-21 21:33N 58°21' E 011°26'0 0.0
2015-May-21 20:33N 58°21' E 011°26'0 0.0
2015-May-21 19:33N 58°21' E 011°26'0 0.0
2015-May-21 18:33N 58°21' E 011°26'0 0.0
2015-May-21 17:33N 58°21' E 011°26'0 0.0
2015-May-21 16:30N 58°21' E 011°26'0 0.0
2015-May-21 15:27N 58°21' E 011°26'0 0.0
2015-May-21 14:33N 58°21' E 011°26'0 0.0
2015-May-21 13:33N 58°21' E 011°26'0 0.0
2015-May-21 12:33N 58°21' E 011°26'0 0.0
2015-May-21 11:30N 58°21' E 011°26'0 0.0
2015-May-21 10:33N 58°21' E 011°26'0 0.0
2015-May-21 09:27N 58°21' E 011°26'0 0.0
2015-May-21 08:33N 58°21' E 011°26'0 0.0
2015-May-21 07:33N 58°21' E 011°26'0 0.0
2015-May-21 06:33N 58°21' E 011°26'0 0.0
2015-May-21 05:33N 58°21' E 011°26'0 0.0
2015-May-21 04:33N 58°21' E 011°26'0 0.0
2015-May-21 03:33N 58°21' E 011°26'0 0.0
2015-May-21 02:33N 58°21' E 011°26'0 0.0
2015-May-21 01:15N 58°21' E 011°26'0 0.0
2015-May-21 00:33N 58°21' E 011°26'1 0.8
2015-May-20 23:33N 58°21' E 011°25'5 4.9
2015-May-20 22:33N 58°18' E 011°18'7 7.1
2015-May-20 21:33N 58°12' E 011°11'0 0.1
2015-May-20 20:31N 58°12' E 011°11'0 0.0
2015-May-20 19:31N 58°12' E 011°11'0 0.0
2015-May-20 18:31N 58°12' E 011°11'0 0.0
2015-May-20 17:31N 58°12' E 011°11'0 0.0
2015-May-20 16:31N 58°12' E 011°11'0 0.0
2015-May-20 15:31N 58°12' E 011°11'0 0.0
2015-May-20 14:31N 58°12' E 011°11'0 0.0
2015-May-20 13:22N 58°12' E 011°11'0 0.0
2015-May-20 12:31N 58°12' E 011°11'0 0.0
2015-May-20 11:31N 58°12' E 011°11'0 0.0
2015-May-20 10:31N 58°12' E 011°11'0 0.0
2015-May-20 09:31N 58°12' E 011°11'0 0.0
2015-May-20 08:31N 58°12' E 011°11'0 0.0
2015-May-20 07:31N 58°12' E 011°11'0 0.0
2015-May-20 06:31N 58°12' E 011°11'0 0.0
2015-May-20 05:31N 58°12' E 011°11'0 0.0
2015-May-20 04:31N 58°12' E 011°11'0 0.0
2015-May-20 03:31N 58°12' E 011°11'0 0.0
2015-May-20 02:31N 58°12' E 011°11'0 0.0
2015-May-20 01:22N 58°12' E 011°11'0 0.0
2015-May-20 00:28N 58°12' E 011°11'0 0.0
2015-May-19 23:31N 58°12' E 011°11'0 0.0
2015-May-19 22:31N 58°12' E 011°11'0 0.0
2015-May-19 21:31N 58°12' E 011°11'0 0.0
2015-May-19 20:28N 58°12' E 011°11'0 0.0
2015-May-19 19:31N 58°12' E 011°11'0 0.0
2015-May-19 18:31N 58°12' E 011°11'0 0.0
2015-May-19 17:31N 58°12' E 011°11'0 0.0
2015-May-19 16:31N 58°12' E 011°11'0 0.0
2015-May-19 15:28N 58°12' E 011°11'0 0.0
2015-May-19 14:31N 58°12' E 011°11'0 0.0
2015-May-19 13:28N 58°12' E 011°11'0 0.0
2015-May-19 12:31N 58°12' E 011°11'0 0.0
2015-May-19 11:31N 58°12' E 011°11'0 0.0
2015-May-19 10:31N 58°12' E 011°11'0 0.0
2015-May-19 09:31N 58°12' E 011°11'0 0.0
2015-May-19 08:31N 58°12' E 011°11'0 0.0
2015-May-19 07:31N 58°12' E 011°11'0 0.0
2015-May-19 06:31N 58°12' E 011°11'0 0.0
2015-May-19 05:31N 58°12' E 011°11'0 0.1
2015-May-19 04:31N 58°12' E 011°11'0 0.0
2015-May-19 03:31N 58°12' E 011°11'0 0.0
2015-May-19 02:31N 58°12' E 011°11'0 0.0
2015-May-19 01:28N 58°12' E 011°11'0 0.0
2015-May-19 00:31N 58°12' E 011°11'0 0.0
2015-May-18 23:31N 58°12' E 011°11'0 0.0
2015-May-18 22:31N 58°12' E 011°11'0 0.0
2015-May-18 21:31N 58°12' E 011°11'0 0.0
2015-May-18 20:31N 58°12' E 011°11'  

Dump ship's entire track history